createdAt,value
2017-06-03T00:01:03.067Z,19.20
2017-06-03T00:03:31.361Z,19.10
2017-06-03T00:06:00.610Z,19.00
2017-06-03T00:08:28.894Z,18.90
2017-06-03T00:10:56.415Z,18.90
2017-06-03T00:13:23.916Z,19.00
2017-06-03T00:15:51.414Z,19.00
2017-06-03T00:18:18.956Z,19.00
2017-06-03T00:20:46.454Z,19.00
2017-06-03T00:23:13.955Z,19.00
2017-06-03T00:25:41.495Z,18.90
2017-06-03T00:28:09.970Z,18.70
2017-06-03T00:30:38.245Z,18.70
2017-06-03T00:33:07.019Z,18.60
2017-06-03T00:35:34.557Z,18.60
2017-06-03T00:38:02.075Z,18.50
2017-06-03T00:40:29.609Z,18.50
2017-06-03T00:42:57.111Z,18.50
2017-06-03T00:45:25.239Z,18.40
2017-06-03T00:47:52.754Z,18.30
2017-06-03T00:50:20.264Z,18.40
2017-06-03T00:52:47.775Z,18.40
2017-06-03T00:55:15.293Z,18.40
2017-06-03T00:57:43.587Z,18.30
2017-06-03T01:00:11.223Z,18.30
2017-06-03T01:02:39.498Z,18.20
2017-06-03T01:05:07.794Z,18.10
2017-06-03T01:07:35.309Z,18.00
2017-06-03T01:10:02.830Z,18.00
2017-06-03T01:12:30.332Z,18.00
2017-06-03T01:14:57.857Z,17.90
2017-06-03T01:17:25.380Z,18.00
2017-06-03T01:19:52.892Z,17.90
2017-06-03T01:22:21.678Z,17.80
2017-06-03T01:24:50.254Z,17.70
2017-06-03T01:27:19.510Z,17.70
2017-06-03T01:29:47.263Z,17.60
2017-06-03T01:32:16.759Z,17.40
2017-06-03T01:34:44.479Z,17.40
2017-06-03T01:37:12.027Z,17.40
2017-06-03T01:39:39.542Z,17.40
2017-06-03T01:42:07.065Z,17.40
2017-06-03T01:44:34.562Z,17.40
2017-06-03T01:47:02.072Z,17.30
2017-06-03T01:49:29.580Z,17.30
2017-06-03T01:51:57.119Z,17.20
2017-06-03T01:54:24.644Z,17.20
2017-06-03T01:56:52.168Z,17.10
2017-06-03T01:59:20.445Z,17.00
2017-06-03T02:01:48.714Z,17.00
2017-06-03T02:04:16.201Z,17.00
2017-06-03T02:06:43.959Z,17.10
2017-06-03T02:09:11.481Z,17.10
2017-06-03T02:11:38.988Z,17.00
2017-06-03T02:14:06.554Z,17.00
2017-06-03T02:16:35.048Z,17.10
2017-06-03T02:19:02.568Z,17.00
2017-06-03T02:21:30.863Z,17.00
2017-06-03T02:23:58.383Z,17.00
2017-06-03T02:26:25.886Z,17.00
2017-06-03T02:28:53.386Z,17.00
2017-06-03T02:31:20.902Z,16.90
2017-06-03T02:33:48.402Z,16.90
2017-06-03T02:36:15.919Z,16.80
2017-06-03T02:38:43.447Z,16.80
2017-06-03T02:41:11.061Z,16.80
2017-06-03T02:43:38.570Z,16.70
2017-06-03T02:46:06.077Z,16.60
2017-06-03T02:48:33.607Z,16.60
2017-06-03T02:51:01.119Z,16.60
2017-06-03T02:53:28.679Z,16.60
2017-06-03T02:55:56.194Z,16.60
2017-06-03T02:58:23.695Z,16.60
2017-06-03T03:00:51.233Z,16.60
2017-06-03T03:03:18.775Z,16.50
2017-06-03T03:05:46.396Z,16.50
2017-06-03T03:08:13.924Z,16.50
2017-06-03T03:10:41.635Z,16.50
2017-06-03T03:13:09.926Z,16.50
2017-06-03T03:15:38.175Z,16.50
2017-06-03T03:18:05.674Z,16.50
2017-06-03T03:20:33.172Z,16.50
2017-06-03T03:23:00.698Z,16.40
2017-06-03T03:25:28.205Z,16.30
2017-06-03T03:27:55.994Z,16.40
2017-06-03T03:30:23.526Z,16.40
2017-06-03T03:32:51.053Z,16.40
2017-06-03T03:35:18.576Z,16.40
2017-06-03T03:37:46.103Z,16.30
2017-06-03T03:40:13.642Z,16.30
2017-06-03T03:42:41.140Z,16.40
2017-06-03T03:45:08.721Z,16.40
2017-06-03T03:47:36.229Z,16.40
2017-06-03T03:50:03.751Z,16.50
2017-06-03T03:52:31.267Z,16.50
2017-06-03T03:54:59.668Z,16.40
2017-06-03T03:57:27.182Z,16.40
2017-06-03T03:59:54.698Z,16.30
2017-06-03T04:02:22.970Z,16.30
2017-06-03T04:04:51.251Z,16.30
2017-06-03T04:07:18.771Z,16.30
2017-06-03T04:09:46.278Z,16.30
2017-06-03T04:12:13.804Z,16.40
2017-06-03T04:14:41.318Z,16.50
2017-06-03T04:17:08.832Z,16.40
2017-06-03T04:19:36.353Z,16.40
2017-06-03T04:22:03.852Z,16.40
2017-06-03T04:24:32.113Z,16.40
2017-06-03T04:26:59.632Z,16.40
2017-06-03T04:29:27.266Z,16.40
2017-06-03T04:31:55.676Z,16.50
2017-06-03T04:34:23.188Z,16.50
2017-06-03T04:36:52.273Z,16.60
2017-06-03T04:39:19.787Z,16.60
2017-06-03T04:41:47.299Z,16.60
2017-06-03T04:44:14.806Z,16.60
2017-06-03T04:46:42.327Z,16.60
2017-06-03T04:49:10.584Z,16.60
2017-06-03T04:51:38.133Z,16.60
2017-06-03T04:54:05.659Z,16.50
2017-06-03T04:56:33.163Z,16.50
2017-06-03T04:59:00.702Z,16.60
2017-06-03T05:01:28.216Z,16.60
2017-06-03T05:03:55.780Z,16.70
2017-06-03T05:06:24.074Z,17.00
2017-06-03T05:08:51.590Z,17.50
2017-06-03T05:11:19.114Z,18.00
2017-06-03T05:13:46.604Z,18.00
2017-06-03T05:16:14.120Z,17.90
2017-06-03T05:18:41.682Z,17.90
2017-06-03T05:21:09.188Z,17.80
2017-06-03T05:23:36.695Z,17.70
2017-06-03T05:26:04.211Z,17.60
2017-06-03T05:28:31.721Z,17.50
2017-06-03T05:30:59.246Z,17.40
2017-06-03T05:33:26.785Z,17.40
2017-06-03T05:35:54.293Z,17.30
2017-06-03T05:38:21.787Z,17.30
2017-06-03T05:40:49.308Z,17.30
2017-06-03T05:43:17.070Z,17.40
2017-06-03T05:45:44.571Z,17.40
2017-06-03T05:48:12.099Z,17.40
2017-06-03T05:50:39.615Z,17.50
2017-06-03T05:53:07.121Z,17.50
2017-06-03T05:55:34.679Z,17.60
2017-06-03T05:58:02.201Z,17.60
2017-06-03T06:00:29.721Z,17.70
2017-06-03T06:02:57.289Z,17.70
2017-06-03T06:05:24.799Z,17.70
2017-06-03T06:07:52.307Z,17.80
2017-06-03T06:10:19.964Z,17.80
2017-06-03T06:12:47.491Z,17.80
2017-06-03T06:15:14.988Z,17.80
2017-06-03T06:17:42.509Z,17.90
2017-06-03T06:20:10.009Z,18.00
2017-06-03T06:22:37.515Z,17.90
2017-06-03T06:25:05.042Z,18.00
2017-06-03T06:27:32.558Z,18.10
2017-06-03T06:30:00.076Z,18.20
2017-06-03T06:32:27.871Z,18.30
2017-06-03T06:34:56.187Z,18.30
2017-06-03T06:37:23.724Z,18.40
2017-06-03T06:39:51.307Z,18.60
2017-06-03T06:42:18.817Z,18.60
2017-06-03T06:44:46.335Z,18.70
2017-06-03T06:47:13.861Z,18.80
2017-06-03T06:49:41.402Z,18.80
2017-06-03T06:52:08.919Z,19.00
2017-06-03T06:54:36.462Z,19.10
2017-06-03T06:57:03.968Z,19.20
2017-06-03T06:59:31.563Z,19.40
2017-06-03T07:01:59.068Z,19.40
2017-06-03T07:04:26.596Z,19.50
2017-06-03T07:06:54.101Z,19.60
2017-06-03T07:09:21.608Z,19.70
2017-06-03T07:11:49.158Z,19.60
2017-06-03T07:14:16.676Z,19.70
2017-06-03T07:16:44.196Z,19.70
2017-06-03T07:19:11.744Z,19.80
2017-06-03T07:21:39.267Z,19.90
2017-06-03T07:24:06.794Z,20.00
2017-06-03T07:26:35.087Z,20.30
2017-06-03T07:29:02.790Z,20.30
2017-06-03T07:31:30.303Z,20.60
2017-06-03T07:33:58.833Z,21.00
2017-06-03T07:36:26.346Z,21.30
2017-06-03T07:38:53.852Z,21.50
2017-06-03T07:41:21.367Z,21.70
2017-06-03T07:43:48.902Z,21.70
2017-06-03T07:46:16.418Z,21.70
2017-06-03T07:48:43.915Z,21.90
2017-06-03T07:51:11.423Z,22.10
2017-06-03T07:53:39.064Z,22.10
2017-06-03T07:56:06.656Z,22.20
2017-06-03T07:58:34.168Z,22.10
2017-06-03T08:01:01.718Z,22.10
2017-06-03T08:03:29.283Z,22.30
2017-06-03T08:05:56.790Z,22.30
2017-06-03T08:08:24.364Z,22.40
2017-06-03T08:10:51.908Z,22.50
2017-06-03T08:13:19.512Z,22.50
2017-06-03T08:15:47.026Z,22.50
2017-06-03T08:18:14.607Z,22.80
2017-06-03T08:20:42.152Z,23.00
2017-06-03T08:23:09.670Z,23.10
2017-06-03T08:25:37.943Z,23.40
2017-06-03T08:28:06.222Z,23.70
2017-06-03T08:30:34.502Z,23.90
2017-06-03T08:33:02.782Z,24.10
2017-06-03T08:35:31.039Z,24.10
2017-06-03T08:37:59.143Z,24.10
2017-06-03T08:40:26.671Z,24.30
2017-06-03T08:42:54.317Z,24.50
2017-06-03T08:45:22.058Z,24.60
2017-06-03T08:47:49.591Z,24.70
2017-06-03T08:50:18.162Z,24.80
2017-06-03T08:52:45.709Z,24.90
2017-06-03T08:55:13.283Z,25.00
2017-06-03T08:57:45.436Z,25.00
2017-06-03T09:00:13.005Z,25.00
2017-06-03T09:02:41.402Z,25.00
2017-06-03T09:05:08.902Z,25.00
2017-06-03T09:07:36.638Z,25.30
2017-06-03T09:10:04.171Z,25.60
2017-06-03T09:12:31.679Z,25.80
2017-06-03T09:14:59.193Z,25.90
2017-06-03T09:17:26.783Z,25.90
2017-06-03T09:19:54.291Z,25.80
2017-06-03T09:22:22.298Z,26.00
2017-06-03T09:24:49.835Z,26.00
2017-06-03T09:27:18.206Z,25.60
2017-06-03T09:29:45.781Z,25.60
2017-06-03T09:32:13.290Z,25.50
2017-06-03T09:34:40.843Z,25.40
2017-06-03T09:37:08.366Z,25.40
2017-06-03T09:39:35.868Z,25.30
2017-06-03T09:42:03.469Z,25.10
2017-06-03T09:44:31.767Z,24.80
2017-06-03T09:46:59.270Z,24.70
2017-06-03T09:49:26.795Z,24.50
2017-06-03T09:51:54.310Z,24.40
2017-06-03T09:54:21.826Z,24.40
2017-06-03T09:56:49.963Z,24.20
2017-06-03T09:59:17.459Z,24.10
2017-06-03T10:01:45.327Z,23.60
2017-06-03T10:04:12.858Z,23.60
2017-06-03T10:06:41.123Z,23.60
2017-06-03T10:09:09.411Z,23.60
2017-06-03T10:11:37.717Z,23.70
2017-06-03T10:14:05.235Z,23.70
2017-06-03T10:16:32.786Z,23.70
2017-06-03T10:19:01.080Z,23.90
2017-06-03T10:21:28.621Z,23.90
2017-06-03T10:23:56.538Z,24.10
2017-06-03T10:26:24.066Z,24.10
2017-06-03T10:28:51.618Z,24.20
2017-06-03T10:31:19.169Z,24.30
2017-06-03T10:33:46.662Z,24.60
2017-06-03T10:36:14.204Z,24.70
2017-06-03T10:38:41.732Z,24.70
2017-06-03T10:41:10.251Z,24.70
2017-06-03T10:43:38.623Z,24.40
2017-06-03T10:46:06.219Z,24.40
2017-06-03T10:48:33.737Z,24.10
2017-06-03T10:51:01.297Z,23.70
2017-06-03T10:53:29.573Z,23.20
2017-06-03T10:55:57.076Z,23.20
2017-06-03T10:58:24.641Z,23.10
2017-06-03T11:00:52.130Z,22.90
2017-06-03T11:03:20.751Z,22.70
2017-06-03T11:05:48.295Z,22.60
2017-06-03T11:08:15.807Z,22.50
2017-06-03T11:10:43.310Z,22.30
2017-06-03T11:13:11.286Z,22.40
2017-06-03T11:15:39.570Z,22.30
2017-06-03T11:18:07.885Z,22.30
2017-06-03T11:20:35.427Z,22.30
2017-06-03T11:23:03.059Z,22.30
2017-06-03T11:25:30.693Z,22.30
2017-06-03T11:27:58.190Z,22.30
2017-06-03T11:30:26.046Z,22.00
2017-06-03T11:32:53.526Z,21.90
2017-06-03T11:35:21.067Z,21.90
2017-06-03T11:37:48.583Z,21.90
2017-06-03T11:40:16.459Z,21.90
2017-06-03T11:42:44.022Z,21.90
2017-06-03T11:45:11.872Z,21.90
2017-06-03T11:47:39.379Z,21.90
2017-06-03T11:50:07.767Z,22.00
2017-06-03T11:52:35.295Z,21.90
2017-06-03T11:55:02.805Z,22.00
2017-06-03T11:57:30.319Z,22.00
2017-06-03T11:59:57.813Z,22.10
2017-06-03T12:02:25.344Z,22.10
2017-06-03T12:04:52.836Z,22.10
2017-06-03T12:07:20.376Z,22.10
2017-06-03T12:09:47.883Z,22.00
2017-06-03T12:12:15.404Z,22.00
2017-06-03T12:14:43.691Z,22.00
2017-06-03T12:17:11.230Z,22.00
2017-06-03T12:19:38.760Z,22.10
2017-06-03T12:22:06.277Z,22.20
2017-06-03T12:24:33.929Z,22.30
2017-06-03T12:27:01.514Z,22.40
2017-06-03T12:29:29.167Z,22.40
2017-06-03T12:31:56.695Z,22.40
2017-06-03T12:34:24.986Z,22.30
2017-06-03T12:36:53.278Z,22.20
2017-06-03T12:39:20.799Z,22.20
2017-06-03T12:41:48.345Z,22.10
2017-06-03T12:44:17.847Z,22.00
2017-06-03T12:46:45.416Z,22.00
2017-06-03T12:49:12.963Z,22.00
2017-06-03T12:51:40.471Z,22.00
2017-06-03T12:54:08.031Z,21.90
2017-06-03T12:56:35.544Z,21.90
2017-06-03T12:59:03.135Z,21.90
2017-06-03T13:01:30.717Z,21.90
2017-06-03T13:03:58.242Z,21.90
2017-06-03T13:06:25.978Z,22.00
2017-06-03T13:08:53.500Z,22.00
2017-06-03T13:11:21.002Z,22.00
2017-06-03T13:13:48.599Z,22.10
2017-06-03T13:16:16.879Z,22.10
2017-06-03T13:18:45.163Z,22.20
2017-06-03T13:21:13.474Z,22.10
2017-06-03T13:23:41.014Z,22.00
2017-06-03T13:26:08.558Z,21.90
2017-06-03T13:28:36.872Z,21.90
2017-06-03T13:31:04.407Z,21.90
2017-06-03T13:33:31.933Z,22.00
2017-06-03T13:35:59.423Z,21.90
2017-06-03T13:38:26.914Z,21.80
2017-06-03T13:40:54.433Z,21.80
2017-06-03T13:43:21.949Z,21.80
2017-06-03T13:45:49.447Z,21.70
2017-06-03T13:48:17.712Z,21.60
2017-06-03T13:50:46.023Z,21.60
2017-06-03T13:53:13.538Z,21.60
2017-06-03T13:55:41.042Z,21.50
2017-06-03T13:58:08.598Z,21.40
2017-06-03T14:00:36.378Z,21.40
2017-06-03T14:03:03.915Z,21.50
2017-06-03T14:05:31.441Z,21.60
2017-06-03T14:07:58.958Z,21.80
2017-06-03T14:10:26.510Z,22.10
2017-06-03T14:12:54.050Z,22.30
2017-06-03T14:15:21.574Z,22.50
2017-06-03T14:17:49.083Z,22.60
2017-06-03T14:20:16.597Z,22.70
2017-06-03T14:22:44.118Z,22.70
2017-06-03T14:25:11.694Z,22.80
2017-06-03T14:27:39.242Z,22.90
2017-06-03T14:30:06.747Z,23.20
2017-06-03T14:32:35.055Z,23.80
2017-06-03T14:35:02.603Z,23.70
2017-06-03T14:37:30.120Z,24.00
2017-06-03T14:39:57.624Z,24.30
2017-06-03T14:42:25.169Z,24.50
2017-06-03T14:44:52.683Z,24.50
2017-06-03T14:47:20.211Z,24.60
2017-06-03T14:49:47.741Z,24.70
2017-06-03T14:52:15.232Z,25.00
2017-06-03T14:54:42.752Z,25.20
2017-06-03T14:57:10.428Z,25.50
2017-06-03T14:59:38.761Z,25.70
2017-06-03T15:02:06.287Z,25.70
2017-06-03T15:04:33.813Z,25.80
2017-06-03T15:07:01.328Z,25.90
2017-06-03T15:09:28.842Z,25.80
2017-06-03T15:11:57.246Z,25.80
2017-06-03T15:14:24.799Z,25.80
2017-06-03T15:16:52.298Z,25.80
2017-06-03T15:19:19.882Z,26.20
2017-06-03T15:21:47.491Z,27.00
2017-06-03T15:24:15.006Z,27.70
2017-06-03T15:26:42.675Z,28.60
2017-06-03T15:29:10.183Z,28.90
2017-06-03T15:31:37.679Z,28.90
2017-06-03T15:34:05.236Z,29.30
2017-06-03T15:36:32.890Z,29.50
2017-06-03T15:39:00.413Z,29.60
2017-06-03T15:41:27.949Z,29.60
2017-06-03T15:43:56.235Z,28.90
2017-06-03T15:46:23.755Z,28.90
2017-06-03T15:48:51.310Z,28.70
2017-06-03T15:51:18.820Z,28.70
2017-06-03T15:53:46.370Z,28.60
2017-06-03T15:56:13.869Z,28.40
2017-06-03T15:58:41.381Z,28.00
2017-06-03T16:01:09.681Z,27.70
2017-06-03T16:03:37.219Z,27.70
2017-06-03T16:06:04.872Z,27.40
2017-06-03T16:08:32.415Z,27.30
2017-06-03T16:10:59.956Z,27.10
2017-06-03T16:13:27.499Z,26.80
2017-06-03T16:15:55.706Z,26.80
2017-06-03T16:18:23.218Z,26.80
2017-06-03T16:20:50.770Z,27.00
2017-06-03T16:23:18.508Z,27.20
2017-06-03T16:25:46.032Z,27.20
2017-06-03T16:28:13.533Z,27.40
2017-06-03T16:30:41.087Z,27.40
2017-06-03T16:33:08.664Z,27.50
2017-06-03T16:35:36.221Z,27.50
2017-06-03T16:38:03.773Z,27.30
2017-06-03T16:40:31.323Z,27.20
2017-06-03T16:42:58.817Z,27.10
2017-06-03T16:45:26.338Z,26.80
2017-06-03T16:47:53.909Z,26.60
2017-06-03T16:50:21.430Z,26.40
2017-06-03T16:52:49.095Z,26.60
2017-06-03T16:55:16.651Z,26.60
2017-06-03T16:57:44.189Z,26.60
2017-06-03T17:00:11.706Z,26.50
2017-06-03T17:02:39.288Z,26.20
2017-06-03T17:05:06.792Z,26.00
2017-06-03T17:07:34.289Z,25.80
2017-06-03T17:10:02.587Z,25.60
2017-06-03T17:12:30.107Z,25.60
2017-06-03T17:14:58.184Z,25.40
2017-06-03T17:17:25.722Z,25.20
2017-06-03T17:19:53.303Z,25.00
2017-06-03T17:22:20.851Z,24.90
2017-06-03T17:24:48.455Z,24.90
2017-06-03T17:27:16.029Z,24.80
2017-06-03T17:29:43.563Z,24.70
2017-06-03T17:32:11.099Z,24.60
2017-06-03T17:34:38.618Z,24.60
2017-06-03T17:37:06.137Z,24.50
2017-06-03T17:39:33.651Z,24.50
2017-06-03T17:42:01.193Z,24.40
2017-06-03T17:44:28.727Z,24.30
2017-06-03T17:46:56.219Z,24.20
2017-06-03T17:49:23.735Z,24.10
2017-06-03T17:51:52.020Z,24.00
2017-06-03T17:54:20.316Z,24.00
2017-06-03T17:56:47.833Z,24.00
2017-06-03T17:59:15.481Z,24.00
2017-06-03T18:01:42.978Z,24.00
2017-06-03T18:04:10.539Z,23.90
2017-06-03T18:06:38.890Z,23.90
2017-06-03T18:09:06.406Z,23.80
2017-06-03T18:11:33.945Z,23.80
2017-06-03T18:14:01.469Z,23.80
2017-06-03T18:16:28.971Z,23.80
2017-06-03T18:18:56.512Z,23.70
2017-06-03T18:21:24.858Z,23.70
2017-06-03T18:23:52.378Z,23.70
2017-06-03T18:26:19.910Z,23.70
2017-06-03T18:28:48.224Z,23.50
2017-06-03T18:31:16.205Z,23.50
2017-06-03T18:33:43.728Z,23.50
2017-06-03T18:36:11.301Z,23.50
2017-06-03T18:38:38.814Z,23.50
2017-06-03T18:41:06.434Z,23.50
2017-06-03T18:43:33.969Z,23.40
2017-06-03T18:46:01.499Z,23.40
2017-06-03T18:48:29.140Z,23.30
2017-06-03T18:50:56.648Z,23.30
2017-06-03T18:53:24.194Z,23.30
2017-06-03T18:55:52.493Z,23.30
2017-06-03T18:58:20.096Z,23.30
2017-06-03T19:00:47.641Z,23.20
2017-06-03T19:03:15.151Z,23.20
2017-06-03T19:05:42.654Z,23.10
2017-06-03T19:08:10.194Z,23.00
2017-06-03T19:10:37.731Z,22.90
2017-06-03T19:13:05.247Z,22.80
2017-06-03T19:15:32.781Z,22.70
2017-06-03T19:18:00.298Z,22.70
2017-06-03T19:20:29.227Z,22.70
2017-06-03T19:22:56.919Z,22.70
2017-06-03T19:25:25.305Z,22.60
2017-06-03T19:27:52.856Z,22.50
2017-06-03T19:30:20.376Z,22.40
2017-06-03T19:32:48.707Z,22.50
2017-06-03T19:35:16.217Z,22.50
2017-06-03T19:37:43.739Z,22.40
2017-06-03T19:40:11.402Z,22.40
2017-06-03T19:42:38.992Z,22.50
2017-06-03T19:45:06.582Z,22.60
2017-06-03T19:47:34.276Z,22.60
2017-06-03T19:50:02.615Z,22.50
2017-06-03T19:52:30.168Z,22.30
2017-06-03T19:54:57.706Z,22.30
2017-06-03T19:57:25.247Z,22.30
2017-06-03T19:59:52.812Z,22.30
2017-06-03T20:02:20.333Z,22.20
2017-06-03T20:04:47.900Z,22.20
2017-06-03T20:07:15.486Z,22.20
2017-06-03T20:09:43.070Z,22.20
2017-06-03T20:12:10.665Z,22.20
2017-06-03T20:14:38.195Z,22.20
2017-06-03T20:17:05.739Z,22.30
2017-06-03T20:19:34.041Z,22.10
2017-06-03T20:22:01.578Z,22.10
2017-06-03T20:24:29.141Z,22.00
2017-06-03T20:26:57.424Z,22.00
2017-06-03T20:29:25.734Z,22.00
2017-06-03T20:31:53.310Z,22.00
2017-06-03T20:34:20.831Z,21.90
2017-06-03T20:36:48.367Z,21.90
2017-06-03T20:39:15.889Z,22.00
2017-06-03T20:41:43.386Z,21.90
2017-06-03T20:44:10.904Z,21.90
2017-06-03T20:46:38.442Z,21.90
2017-06-03T20:49:05.984Z,21.80
2017-06-03T20:51:34.262Z,21.80
2017-06-03T20:54:02.519Z,21.70
2017-06-03T20:56:30.775Z,21.80
2017-06-03T20:58:58.309Z,21.80
2017-06-03T21:01:25.866Z,21.90
2017-06-03T21:03:53.464Z,21.80
2017-06-03T21:06:20.987Z,21.80
2017-06-03T21:08:48.517Z,21.80
2017-06-03T21:11:16.830Z,21.80
2017-06-03T21:13:44.337Z,21.80
2017-06-03T21:16:11.918Z,22.00
2017-06-03T21:18:39.427Z,22.00
2017-06-03T21:21:06.983Z,22.00
2017-06-03T21:23:34.501Z,21.80
2017-06-03T21:43:20.227Z,21.50
2017-06-03T21:45:47.727Z,21.40
2017-06-03T21:48:15.250Z,21.40
2017-06-03T21:50:42.777Z,21.40
2017-06-03T21:53:10.288Z,21.50
2017-06-03T21:55:37.847Z,21.50
2017-06-03T21:58:05.351Z,21.50
2017-06-03T22:00:32.881Z,21.60
2017-06-03T22:03:00.430Z,21.70
2017-06-03T22:05:27.946Z,21.70
2017-06-03T22:07:55.480Z,21.60
2017-06-03T22:10:23.784Z,21.60
2017-06-03T22:12:51.321Z,21.60
2017-06-03T22:15:18.843Z,21.50
2017-06-03T22:17:46.354Z,21.50
2017-06-03T22:20:14.279Z,21.60
2017-06-03T22:22:41.854Z,21.60
2017-06-03T22:25:09.377Z,21.40
2017-06-03T22:27:36.887Z,21.40
2017-06-03T22:30:04.551Z,21.40
2017-06-03T22:32:32.081Z,21.40
2017-06-03T22:34:59.672Z,21.40
2017-06-03T22:37:27.205Z,21.30
2017-06-03T22:39:54.739Z,21.40
2017-06-03T22:42:22.256Z,21.40
2017-06-03T22:44:49.808Z,21.40
2017-06-03T22:47:17.380Z,21.20
2017-06-03T22:49:44.900Z,21.10
2017-06-03T22:52:12.403Z,20.90
2017-06-03T22:54:39.914Z,21.00
2017-06-03T22:57:07.471Z,21.00
2017-06-03T22:59:34.998Z,21.00
2017-06-03T23:02:02.526Z,21.00
2017-06-03T23:04:30.032Z,20.90
2017-06-03T23:06:59.272Z,20.80
2017-06-03T23:09:26.841Z,20.80
2017-06-03T23:11:55.196Z,20.70
2017-06-03T23:14:22.701Z,20.70
2017-06-03T23:16:50.219Z,20.70
2017-06-03T23:19:17.776Z,20.80
2017-06-03T23:21:45.289Z,20.80
2017-06-03T23:24:12.799Z,20.80
2017-06-03T23:26:40.326Z,20.70
2017-06-03T23:29:07.838Z,20.70
2017-06-03T23:31:35.356Z,20.70
2017-06-03T23:34:03.439Z,20.80
2017-06-03T23:36:31.274Z,20.80
2017-06-03T23:38:58.956Z,20.80
2017-06-03T23:41:26.523Z,20.80
2017-06-03T23:43:54.027Z,20.80
2017-06-03T23:46:21.545Z,20.80
2017-06-03T23:48:49.062Z,20.90
2017-06-03T23:51:16.574Z,20.80
2017-06-03T23:53:44.906Z,20.80
2017-06-03T23:56:12.409Z,20.80
2017-06-03T23:58:39.959Z,20.70
